^^
Saratoga-Weather Station Historical Data
Daily Summary for February 6, 2020 Units:  Both    English   Metric
Daily Weekly Monthly Yearly Custom
  High: Low: Average:
Temperature: 38.8 °F /  3.8 °C 30.6 °F /  -0.8 °C 33.3 °F /  0.7 °C
Dew Point: 37.6 °F /  3.1 °C 29.8 °F /  -1.2 °C 32.4 °F /  0.2 °C
Humidity: 98% 95% 97%
Wind Speed: 4.9mph /  7.9km/h - 0.9mph /  1.4km/h
Wind Gust: 7mph /  11.3km/h - -
Wind- - East
Pressure: 30.5 in /  1032.8 hPa 30.3 in /  1025.1 hPa -
Precipitation: 0 in /  0.0 mm    
Historical Graphs
 
 
Tabular Data for February 6, 2020
Time Temperature Dew Point Pressure Wind Wind Speed Wind Gust Humidity Rainfall Rate (Hourly) solar
00:01 38.8 °F /  3.8 °C 37.6 °F /  3.1 °C 30.5in /  1032.8hPa Calm     95% 0in /  0.0mm 0 W/m2
00:06 38.8 °F /  3.8 °C 37.6 °F /  3.1 °C 30.5in /  1032.5hPa Calm     95% 0in /  0.0mm 0 W/m2
00:11 38.7 °F /  3.7 °C 37.4 °F /  3 °C 30.5in /  1032.5hPa Calm     95% 0in /  0.0mm 0 W/m2
00:16 38.7 °F /  3.7 °C 37.4 °F /  3 °C 30.5in /  1032.5hPa Calm   1mph /  1.6km/h 95% 0in /  0.0mm 0 W/m2
00:21 38.5 °F /  3.6 °C 37.2 °F /  2.9 °C 30.5in /  1032.5hPa Calm     95% 0in /  0.0mm 0 W/m2
00:26 38.5 °F /  3.6 °C 37.2 °F /  2.9 °C 30.5in /  1032.5hPa Calm   1mph /  1.6km/h 95% 0in /  0.0mm 0 W/m2
00:31 38.1 °F /  3.4 °C 36.9 °F /  2.7 °C 30.5in /  1032.5hPa Calm     95% 0in /  0.0mm 0 W/m2
00:36 37.9 °F /  3.3 °C 36.7 °F /  2.6 °C 30.5in /  1032.5hPa Calm     95% 0in /  0.0mm 0 W/m2
00:41 37.6 °F /  3.1 °C 36.3 °F /  2.4 °C 30.5in /  1032.2hPa Calm     95% 0in /  0.0mm 0 W/m2
00:46 37.4 °F /  3 °C 36.1 °F /  2.3 °C 30.5in /  1032.2hPa Calm     95% 0in /  0.0mm 0 W/m2
00:51 37 °F /  2.8 °C 35.8 °F /  2.1 °C 30.5in /  1032.2hPa Calm     95% 0in /  0.0mm 0 W/m2
00:56 36.9 °F /  2.7 °C 35.6 °F /  2 °C 30.5in /  1032.2hPa Calm     95% 0in /  0.0mm 0 W/m2
01:01 36.9 °F /  2.7 °C 35.6 °F /  2 °C 30.5in /  1032.2hPa Calm     95% 0in /  0.0mm 0 W/m2
01:06 36.5 °F /  2.5 °C 35.2 °F /  1.8 °C 30.5in /  1032.2hPa Calm     95% 0in /  0.0mm 0 W/m2
01:11 36.3 °F /  2.4 °C 35.1 °F /  1.7 °C 30.5in /  1031.8hPa Calm     95% 0in /  0.0mm 0 W/m2
01:16 36.3 °F /  2.4 °C 35.1 °F /  1.7 °C 30.5in /  1031.8hPa Calm     95% 0in /  0.0mm 0 W/m2
01:21 36.1 °F /  2.3 °C 34.9 °F /  1.6 °C 30.5in /  1031.8hPa Calm     95% 0in /  0.0mm 0 W/m2
01:26 36 °F /  2.2 °C 34.7 °F /  1.5 °C 30.5in /  1031.8hPa Calm     95% 0in /  0.0mm 0 W/m2
01:31 36 °F /  2.2 °C 34.9 °F /  1.6 °C 30.5in /  1031.8hPa Calm     96% 0in /  0.0mm 0 W/m2
01:36 36 °F /  2.2 °C 34.9 °F /  1.6 °C 30.5in /  1031.8hPa Calm     96% 0in /  0.0mm 0 W/m2
01:41 35.8 °F /  2.1 °C 34.7 °F /  1.5 °C 30.5in /  1031.8hPa Calm     96% 0in /  0.0mm 0 W/m2
01:46 35.6 °F /  2 °C 34.3 °F /  1.3 °C 30.5in /  1031.8hPa Calm     95% 0in /  0.0mm 0 W/m2
01:51 35.4 °F /  1.9 °C 34.3 °F /  1.3 °C 30.5in /  1031.5hPa Calm     96% 0in /  0.0mm 0 W/m2
01:56 35.4 °F /  1.9 °C 34.3 °F /  1.3 °C 30.5in /  1031.5hPa Calm     96% 0in /  0.0mm 0 W/m2
02:01 35.2 °F /  1.8 °C 34.2 °F /  1.2 °C 30.5in /  1031.5hPa Calm     96% 0in /  0.0mm 0 W/m2
02:06 35.2 °F /  1.8 °C 34.2 °F /  1.2 °C 30.5in /  1031.5hPa Calm     96% 0in /  0.0mm 0 W/m2
02:11 35.2 °F /  1.8 °C 34.2 °F /  1.2 °C 30.5in /  1031.5hPa Calm     96% 0in /  0.0mm 0 W/m2
02:16 35.1 °F /  1.7 °C 34 °F /  1.1 °C 30.5in /  1031.5hPa Calm     96% 0in /  0.0mm 0 W/m2
02:21 35.1 °F /  1.7 °C 34 °F /  1.1 °C 30.5in /  1031.5hPa Calm     96% 0in /  0.0mm 0 W/m2
02:26 34.9 °F /  1.6 °C 33.8 °F /  1 °C 30.5in /  1031.5hPa Calm     96% 0in /  0.0mm 0 W/m2
02:31 34.9 °F /  1.6 °C 33.8 °F /  1 °C 30.5in /  1031.5hPa Calm     96% 0in /  0.0mm 0 W/m2
02:36 34.5 °F /  1.4 °C 33.4 °F /  0.8 °C 30.5in /  1031.5hPa Calm     96% 0in /  0.0mm 0 W/m2
02:41 34.3 °F /  1.3 °C 33.3 °F /  0.7 °C 30.5in /  1031.5hPa Calm     96% 0in /  0.0mm 0 W/m2
02:46 34.2 °F /  1.2 °C 32.9 °F /  0.5 °C 30.5in /  1031.5hPa Calm     95% 0in /  0.0mm 0 W/m2
02:51 33.8 °F /  1 °C 32.7 °F /  0.4 °C 30.5in /  1031.5hPa Calm     96% 0in /  0.0mm 0 W/m2
02:57 33.6 °F /  0.9 °C 32.5 °F /  0.3 °C 30.5in /  1031.2hPa Calm     96% 0in /  0.0mm 0 W/m2
03:02 33.4 °F /  0.8 °C 32.4 °F /  0.2 °C 30.5in /  1031.2hPa Calm     96% 0in /  0.0mm 0 W/m2
03:07 33.4 °F /  0.8 °C 32.4 °F /  0.2 °C 30.5in /  1031.2hPa Calm     96% 0in /  0.0mm 0 W/m2
03:12 33.4 °F /  0.8 °C 32.4 °F /  0.2 °C 30.5in /  1031.2hPa Calm     96% 0in /  0.0mm 0 W/m2
03:17 33.3 °F /  0.7 °C 32.2 °F /  0.1 °C 30.5in /  1031.2hPa Calm     96% 0in /  0.0mm 0 W/m2
03:22 33.1 °F /  0.6 °C 32 °F /  0 °C 30.5in /  1031.2hPa Calm     96% 0in /  0.0mm 0 W/m2
03:27 33.3 °F /  0.7 °C 32.2 °F /  0.1 °C 30.5in /  1031.2hPa Calm     96% 0in /  0.0mm 0 W/m2
03:32 33.4 °F /  0.8 °C 32.4 °F /  0.2 °C 30.5in /  1031.2hPa Calm     96% 0in /  0.0mm 0 W/m2
03:37 33.4 °F /  0.8 °C 32.4 °F /  0.2 °C 30.5in /  1031.2hPa Calm     96% 0in /  0.0mm 0 W/m2
03:42 33.3 °F /  0.7 °C 32.2 °F /  0.1 °C 30.5in /  1031.2hPa Calm     96% 0in /  0.0mm 0 W/m2
03:47 33.1 °F /  0.6 °C 32 °F /  0 °C 30.5in /  1031.2hPa Calm     96% 0in /  0.0mm 0 W/m2
03:52 33.1 °F /  0.6 °C 32 °F /  0 °C 30.5in /  1031.2hPa Calm     96% 0in /  0.0mm 0 W/m2
03:57 33.1 °F /  0.6 °C 32 °F /  0 °C 30.5in /  1031.2hPa Calm     96% 0in /  0.0mm 0 W/m2
04:02 33.3 °F /  0.7 °C 32.2 °F /  0.1 °C 30.5in /  1031.2hPa Calm     96% 0in /  0.0mm 0 W/m2
04:07 33.3 °F /  0.7 °C 32.2 °F /  0.1 °C 30.4in /  1030.8hPa Calm     96% 0in /  0.0mm 0 W/m2
04:12 33.3 °F /  0.7 °C 32.2 °F /  0.1 °C 30.4in /  1030.8hPa Calm     96% 0in /  0.0mm 0 W/m2
04:17 33.4 °F /  0.8 °C 32.4 °F /  0.2 °C 30.4in /  1030.8hPa Calm     96% 0in /  0.0mm 0 W/m2
04:22 33.4 °F /  0.8 °C 32.7 °F /  0.4 °C 30.4in /  1030.8hPa Calm     97% 0in /  0.0mm 0 W/m2
04:27 33.6 °F /  0.9 °C 32.9 °F /  0.5 °C 30.4in /  1030.5hPa Calm     97% 0in /  0.0mm 0 W/m2
04:32 34 °F /  1.1 °C 33.3 °F /  0.7 °C 30.4in /  1030.5hPa Calm     97% 0in /  0.0mm 0 W/m2
04:37 34.2 °F /  1.2 °C 33.4 °F /  0.8 °C 30.4in /  1030.5hPa Calm     97% 0in /  0.0mm 0 W/m2
04:42 34.2 °F /  1.2 °C 33.4 °F /  0.8 °C 30.4in /  1030.5hPa Calm     97% 0in /  0.0mm 0 W/m2
04:47 34.3 °F /  1.3 °C 33.6 °F /  0.9 °C 30.4in /  1030.5hPa Calm     97% 0in /  0.0mm 0 W/m2
04:52 34.3 °F /  1.3 °C 33.6 °F /  0.9 °C 30.4in /  1030.5hPa Calm     97% 0in /  0.0mm 0 W/m2
04:57 34.5 °F /  1.4 °C 33.8 °F /  1 °C 30.4in /  1030.1hPa Calm     97% 0in /  0.0mm 0 W/m2
05:02 34.7 °F /  1.5 °C 34 °F /  1.1 °C 30.4in /  1030.1hPa Calm     97% 0in /  0.0mm 0 W/m2
05:07 34.9 °F /  1.6 °C 34.2 °F /  1.2 °C 30.4in /  1030.1hPa Calm     97% 0in /  0.0mm 0 W/m2
05:12 35.1 °F /  1.7 °C 34.3 °F /  1.3 °C 30.4in /  1030.1hPa Calm     97% 0in /  0.0mm 0 W/m2
05:17 35.1 °F /  1.7 °C 34.3 °F /  1.3 °C 30.4in /  1030.5hPa Calm   1mph /  1.6km/h 97% 0in /  0.0mm 0 W/m2
05:22 35.1 °F /  1.7 °C 34.3 °F /  1.3 °C 30.4in /  1030.1hPa Calm     97% 0in /  0.0mm 0 W/m2
05:27 35.1 °F /  1.7 °C 34.3 °F /  1.3 °C 30.4in /  1030.1hPa Calm     97% 0in /  0.0mm 0 W/m2
05:32 35.1 °F /  1.7 °C 34.3 °F /  1.3 °C 30.4in /  1030.1hPa Calm     97% 0in /  0.0mm 0 W/m2
05:37 35.1 °F /  1.7 °C 34.3 °F /  1.3 °C 30.4in /  1030.1hPa Calm   1mph /  1.6km/h 97% 0in /  0.0mm 0 W/m2
05:42 35.1 °F /  1.7 °C 34.3 °F /  1.3 °C 30.4in /  1030.1hPa Calm     97% 0in /  0.0mm 0 W/m2
05:47 34.9 °F /  1.6 °C 34.2 °F /  1.2 °C 30.4in /  1030.1hPa Calm     97% 0in /  0.0mm 0 W/m2
05:52 34.9 °F /  1.6 °C 34.2 °F /  1.2 °C 30.4in /  1030.1hPa Calm     97% 0in /  0.0mm 0 W/m2
05:57 34.9 °F /  1.6 °C 34.2 °F /  1.2 °C 30.4in /  1030.1hPa Calm     97% 0in /  0.0mm 0 W/m2
06:02 34.7 °F /  1.5 °C 34 °F /  1.1 °C 30.4in /  1030.1hPa Calm     97% 0in /  0.0mm 0 W/m2
06:07 34.7 °F /  1.5 °C 34 °F /  1.1 °C 30.4in /  1030.1hPa Calm     97% 0in /  0.0mm 0 W/m2
06:12 34.5 °F /  1.4 °C 33.8 °F /  1 °C 30.4in /  1030.1hPa Calm     97% 0in /  0.0mm 0 W/m2
06:18 34.5 °F /  1.4 °C 33.8 °F /  1 °C 30.4in /  1030.1hPa Calm     97% 0in /  0.0mm 0 W/m2
06:23 34.5 °F /  1.4 °C 33.8 °F /  1 °C 30.4in /  1030.1hPa Calm     97% 0in /  0.0mm 0 W/m2
06:28 34.5 °F /  1.4 °C 33.8 °F /  1 °C 30.4in /  1030.1hPa Calm     97% 0in /  0.0mm 0 W/m2
06:33 34.5 °F /  1.4 °C 33.8 °F /  1 °C 30.4in /  1030.1hPa Calm     97% 0in /  0.0mm 0 W/m2
06:38 34.3 °F /  1.3 °C 33.6 °F /  0.9 °C 30.4in /  1029.8hPa Calm     97% 0in /  0.0mm 0 W/m2
06:43 34.2 °F /  1.2 °C 33.4 °F /  0.8 °C 30.4in /  1029.8hPa Calm     97% 0in /  0.0mm 0 W/m2
06:48 34.2 °F /  1.2 °C 33.4 °F /  0.8 °C 30.4in /  1029.8hPa Calm     97% 0in /  0.0mm 0 W/m2
06:53 34 °F /  1.1 °C 33.3 °F /  0.7 °C 30.4in /  1029.8hPa Calm     97% 0in /  0.0mm 0 W/m2
06:58 33.8 °F /  1 °C 33.1 °F /  0.6 °C 30.4in /  1030.1hPa Calm     97% 0in /  0.0mm 0 W/m2
07:03 33.6 °F /  0.9 °C 32.9 °F /  0.5 °C 30.4in /  1030.1hPa Calm     97% 0in /  0.0mm 0 W/m2
07:08 33.4 °F /  0.8 °C 32.7 °F /  0.4 °C 30.4in /  1029.8hPa Calm     97% 0in /  0.0mm 0 W/m2
07:13 33.3 °F /  0.7 °C 32.5 °F /  0.3 °C 30.4in /  1029.8hPa Calm     97% 0in /  0.0mm 0 W/m2
07:18 33.3 °F /  0.7 °C 32.5 °F /  0.3 °C 30.4in /  1029.8hPa Calm     97% 0in /  0.0mm 0 W/m2
07:23 33.1 °F /  0.6 °C 32.4 °F /  0.2 °C 30.4in /  1029.8hPa Calm     97% 0in /  0.0mm 0 W/m2
07:28 32.9 °F /  0.5 °C 32.2 °F /  0.1 °C 30.4in /  1029.8hPa Calm     97% 0in /  0.0mm 0 W/m2
07:33 32.7 °F /  0.4 °C 32 °F /  0 °C 30.4in /  1029.8hPa Calm     97% 0in /  0.0mm 0 W/m2
07:38 32.7 °F /  0.4 °C 32 °F /  0 °C 30.4in /  1029.8hPa Calm     97% 0in /  0.0mm 0 W/m2
07:43 32.7 °F /  0.4 °C 32 °F /  0 °C 30.4in /  1029.8hPa Calm     97% 0in /  0.0mm 0 W/m2
07:48 32.5 °F /  0.3 °C 31.8 °F /  -0.1 °C 30.4in /  1029.8hPa Calm     97% 0in /  0.0mm 0 W/m2
07:53 32.5 °F /  0.3 °C 31.8 °F /  -0.1 °C 30.4in /  1029.8hPa Calm     97% 0in /  0.0mm 0 W/m2
07:58 32.5 °F /  0.3 °C 31.8 °F /  -0.1 °C 30.4in /  1029.8hPa Calm     97% 0in /  0.0mm 0 W/m2
08:03 32.7 °F /  0.4 °C 32 °F /  0 °C 30.4in /  1029.8hPa Calm     97% 0in /  0.0mm 0 W/m2
08:08 32.7 °F /  0.4 °C 32 °F /  0 °C 30.4in /  1029.8hPa Calm     97% 0in /  0.0mm 0 W/m2
08:13 32.9 °F /  0.5 °C 32.2 °F /  0.1 °C 30.4in /  1029.8hPa NE 0.9mph /  1.4km/h 2mph /  3.2km/h 97% 0in /  0.0mm 0 W/m2
08:18 32.9 °F /  0.5 °C 32.2 °F /  0.1 °C 30.4in /  1029.8hPa ESE 2mph /  3.2km/h 4mph /  6.4km/h 97% 0in /  0.0mm 0 W/m2
08:23 32.7 °F /  0.4 °C 32 °F /  0 °C 30.4in /  1029.8hPa SE 0.9mph /  1.4km/h 3mph /  4.8km/h 97% 0in /  0.0mm 0 W/m2
08:28 32.5 °F /  0.3 °C 31.8 °F /  -0.1 °C 30.4in /  1029.8hPa East 0.9mph /  1.4km/h 3mph /  4.8km/h 97% 0in /  0.0mm 0 W/m2
08:33 32.5 °F /  0.3 °C 31.8 °F /  -0.1 °C 30.4in /  1029.8hPa ESE 2mph /  3.2km/h 4mph /  6.4km/h 97% 0in /  0.0mm 0 W/m2
08:38 32.4 °F /  0.2 °C 31.6 °F /  -0.2 °C 30.4in /  1029.8hPa SE 2mph /  3.2km/h 4mph /  6.4km/h 97% 0in /  0.0mm 0 W/m2
08:43 32.2 °F /  0.1 °C 31.5 °F /  -0.3 °C 30.4in /  1029.8hPa Calm   1mph /  1.6km/h 97% 0in /  0.0mm 0 W/m2
08:48 32 °F /  0 °C 31.3 °F /  -0.4 °C 30.4in /  1029.8hPa East 0.9mph /  1.4km/h 4mph /  6.4km/h 97% 0in /  0.0mm 7 W/m2
08:53 31.6 °F /  -0.2 °C 30.9 °F /  -0.6 °C 30.4in /  1029.8hPa Calm   3mph /  4.8km/h 97% 0in /  0.0mm 7 W/m2
08:58 31.5 °F /  -0.3 °C 30.7 °F /  -0.7 °C 30.4in /  1029.8hPa Calm   4mph /  6.4km/h 97% 0in /  0.0mm 9 W/m2
09:03 31.5 °F /  -0.3 °C 30.7 °F /  -0.7 °C 30.4in /  1029.8hPa East 2mph /  3.2km/h 3mph /  4.8km/h 97% 0in /  0.0mm 11 W/m2
09:08 31.5 °F /  -0.3 °C 30.7 °F /  -0.7 °C 30.4in /  1029.8hPa East 2mph /  3.2km/h 3mph /  4.8km/h 97% 0in /  0.0mm 12 W/m2
09:13 31.3 °F /  -0.4 °C 30.6 °F /  -0.8 °C 30.4in /  1029.8hPa ESE 0.9mph /  1.4km/h 4mph /  6.4km/h 97% 0in /  0.0mm 12 W/m2
09:18 31.1 °F /  -0.5 °C 30.4 °F /  -0.9 °C 30.4in /  1029.8hPa SE 0.9mph /  1.4km/h 1mph /  1.6km/h 97% 0in /  0.0mm 16 W/m2
09:23 30.9 °F /  -0.6 °C 30.2 °F /  -1 °C 30.4in /  1029.8hPa Calm   3mph /  4.8km/h 97% 0in /  0.0mm 25 W/m2
09:28 30.9 °F /  -0.6 °C 30.2 °F /  -1 °C 30.4in /  1029.8hPa ESE 0.9mph /  1.4km/h 3mph /  4.8km/h 97% 0in /  0.0mm 19 W/m2
09:33 30.9 °F /  -0.6 °C 30.2 °F /  -1 °C 30.4in /  1029.8hPa East 2.9mph /  4.7km/h 6mph /  9.7km/h 97% 0in /  0.0mm 19 W/m2
09:38 30.7 °F /  -0.7 °C 30 °F /  -1.1 °C 30.4in /  1029.8hPa Calm   1mph /  1.6km/h 97% 0in /  0.0mm 19 W/m2
09:43 30.9 °F /  -0.6 °C 30.2 °F /  -1 °C 30.4in /  1029.8hPa Calm   2mph /  3.2km/h 97% 0in /  0.0mm 21 W/m2
09:48 30.9 °F /  -0.6 °C 30.2 °F /  -1 °C 30.4in /  1029.8hPa ESE 0.9mph /  1.4km/h 3mph /  4.8km/h 97% 0in /  0.0mm 21 W/m2
09:53 30.9 °F /  -0.6 °C 30.2 °F /  -1 °C 30.4in /  1029.8hPa Calm   4mph /  6.4km/h 97% 0in /  0.0mm 23 W/m2
09:58 30.9 °F /  -0.6 °C 30.2 °F /  -1 °C 30.4in /  1029.5hPa Calm   1mph /  1.6km/h 97% 0in /  0.0mm 25 W/m2
10:03 31.1 °F /  -0.5 °C 30.4 °F /  -0.9 °C 30.4in /  1029.5hPa ESE 2mph /  3.2km/h 6mph /  9.7km/h 97% 0in /  0.0mm 33 W/m2
10:08 30.9 °F /  -0.6 °C 30.2 °F /  -1 °C 30.4in /  1029.5hPa Calm   3mph /  4.8km/h 97% 0in /  0.0mm 37 W/m2
10:13 30.9 °F /  -0.6 °C 30.2 °F /  -1 °C 30.4in /  1029.5hPa Calm   6mph /  9.7km/h 97% 0in /  0.0mm 37 W/m2
10:18 30.7 °F /  -0.7 °C 30 °F /  -1.1 °C 30.4in /  1029.5hPa East 0.9mph /  1.4km/h 4mph /  6.4km/h 97% 0in /  0.0mm 40 W/m2
10:24 30.7 °F /  -0.7 °C 30 °F /  -1.1 °C 30.4in /  1029.5hPa NE 0.9mph /  1.4km/h 2mph /  3.2km/h 97% 0in /  0.0mm 40 W/m2
10:29 30.7 °F /  -0.7 °C 30 °F /  -1.1 °C 30.4in /  1029.5hPa Calm   2mph /  3.2km/h 97% 0in /  0.0mm 42 W/m2
10:34 30.7 °F /  -0.7 °C 30 °F /  -1.1 °C 30.4in /  1029.5hPa ESE 2.9mph /  4.7km/h 4mph /  6.4km/h 97% 0in /  0.0mm 47 W/m2
10:39 30.7 °F /  -0.7 °C 30 °F /  -1.1 °C 30.4in /  1029.5hPa ESE 4mph /  6.4km/h 6mph /  9.7km/h 97% 0in /  0.0mm 42 W/m2
10:44 30.6 °F /  -0.8 °C 29.8 °F /  -1.2 °C 30.4in /  1029.5hPa ENE 2mph /  3.2km/h 4mph /  6.4km/h 97% 0in /  0.0mm 44 W/m2
10:49 30.6 °F /  -0.8 °C 29.8 °F /  -1.2 °C 30.4in /  1029.1hPa Calm   3mph /  4.8km/h 97% 0in /  0.0mm 42 W/m2
10:54 30.7 °F /  -0.7 °C 30 °F /  -1.1 °C 30.4in /  1029.1hPa East 2.9mph /  4.7km/h 4mph /  6.4km/h 97% 0in /  0.0mm 53 W/m2
10:59 30.7 °F /  -0.7 °C 30 °F /  -1.1 °C 30.4in /  1029.1hPa Calm   4mph /  6.4km/h 97% 0in /  0.0mm 53 W/m2
11:04 30.7 °F /  -0.7 °C 30 °F /  -1.1 °C 30.4in /  1029.1hPa ESE 0.9mph /  1.4km/h 2mph /  3.2km/h 97% 0in /  0.0mm 58 W/m2
11:09 30.7 °F /  -0.7 °C 30 °F /  -1.1 °C 30.4in /  1029.1hPa ENE 4.9mph /  7.9km/h 6mph /  9.7km/h 97% 0in /  0.0mm 60 W/m2
11:14 30.7 °F /  -0.7 °C 30 °F /  -1.1 °C 30.4in /  1029.1hPa Calm   2mph /  3.2km/h 97% 0in /  0.0mm 58 W/m2
11:19 30.7 °F /  -0.7 °C 30 °F /  -1.1 °C 30.4in /  1028.8hPa Calm   6mph /  9.7km/h 97% 0in /  0.0mm 54 W/m2
11:24 30.7 °F /  -0.7 °C 30 °F /  -1.1 °C 30.4in /  1028.8hPa ENE 4mph /  6.4km/h 5mph /  8km/h 97% 0in /  0.0mm 62 W/m2
11:29 30.7 °F /  -0.7 °C 30 °F /  -1.1 °C 30.4in /  1028.8hPa SE 4mph /  6.4km/h 5mph /  8km/h 97% 0in /  0.0mm 69 W/m2
11:34 30.7 °F /  -0.7 °C 30 °F /  -1.1 °C 30.4in /  1028.5hPa ENE 2.9mph /  4.7km/h 4mph /  6.4km/h 97% 0in /  0.0mm 74 W/m2
11:39 30.7 °F /  -0.7 °C 30 °F /  -1.1 °C 30.4in /  1028.5hPa Calm   2mph /  3.2km/h 97% 0in /  0.0mm 63 W/m2
11:44 30.7 °F /  -0.7 °C 30 °F /  -1.1 °C 30.4in /  1028.5hPa SE 2mph /  3.2km/h 4mph /  6.4km/h 97% 0in /  0.0mm 63 W/m2
11:49 30.7 °F /  -0.7 °C 30 °F /  -1.1 °C 30.4in /  1028.5hPa ESE 2.9mph /  4.7km/h 4mph /  6.4km/h 97% 0in /  0.0mm 62 W/m2
11:54 30.7 °F /  -0.7 °C 30 °F /  -1.1 °C 30.4in /  1028.1hPa Calm   3mph /  4.8km/h 97% 0in /  0.0mm 62 W/m2
11:59 30.9 °F /  -0.6 °C 30.2 °F /  -1 °C 30.4in /  1028.1hPa Calm     97% 0in /  0.0mm 79 W/m2
12:04 30.9 °F /  -0.6 °C 30.2 °F /  -1 °C 30.4in /  1028.1hPa East 2mph /  3.2km/h 2mph /  3.2km/h 97% 0in /  0.0mm 63 W/m2
12:09 30.9 °F /  -0.6 °C 30.2 °F /  -1 °C 30.4in /  1028.1hPa Calm   2mph /  3.2km/h 97% 0in /  0.0mm 58 W/m2
12:14 31.1 °F /  -0.5 °C 30.4 °F /  -0.9 °C 30.4in /  1027.8hPa ENE 0.9mph /  1.4km/h 3mph /  4.8km/h 97% 0in /  0.0mm 65 W/m2
12:19 31.3 °F /  -0.4 °C 30.6 °F /  -0.8 °C 30.4in /  1027.8hPa East 2.9mph /  4.7km/h 3mph /  4.8km/h 97% 0in /  0.0mm 65 W/m2
12:24 31.3 °F /  -0.4 °C 30.6 °F /  -0.8 °C 30.4in /  1027.8hPa East 2mph /  3.2km/h 4mph /  6.4km/h 97% 0in /  0.0mm 81 W/m2
12:29 31.3 °F /  -0.4 °C 30.6 °F /  -0.8 °C 30.4in /  1027.8hPa ESE 2mph /  3.2km/h 7mph /  11.3km/h 97% 0in /  0.0mm 95 W/m2
12:34 31.3 °F /  -0.4 °C 30.6 °F /  -0.8 °C 30.3in /  1027.4hPa SE 0.9mph /  1.4km/h 4mph /  6.4km/h 97% 0in /  0.0mm 84 W/m2
12:39 31.3 °F /  -0.4 °C 30.6 °F /  -0.8 °C 30.3in /  1027.4hPa SE 2.9mph /  4.7km/h 7mph /  11.3km/h 97% 0in /  0.0mm 76 W/m2
12:44 31.1 °F /  -0.5 °C 30.4 °F /  -0.9 °C 30.3in /  1027.4hPa NE 2.9mph /  4.7km/h 5mph /  8km/h 97% 0in /  0.0mm 67 W/m2
12:50 31.3 °F /  -0.4 °C 30.6 °F /  -0.8 °C 30.3in /  1027.4hPa SSE 2mph /  3.2km/h 3mph /  4.8km/h 97% 0in /  0.0mm 65 W/m2
12:55 31.3 °F /  -0.4 °C 30.7 °F /  -0.7 °C 30.3in /  1027.4hPa East 2.9mph /  4.7km/h 4mph /  6.4km/h 98% 0in /  0.0mm 54 W/m2
13:00 31.3 °F /  -0.4 °C 30.7 °F /  -0.7 °C 30.3in /  1027.1hPa East 2.9mph /  4.7km/h 4mph /  6.4km/h 98% 0in /  0.0mm 54 W/m2
13:05 31.5 °F /  -0.3 °C 30.9 °F /  -0.6 °C 30.3in /  1027.1hPa Calm   2mph /  3.2km/h 98% 0in /  0.0mm 54 W/m2
13:10 31.5 °F /  -0.3 °C 30.9 °F /  -0.6 °C 30.3in /  1027.1hPa ENE 2mph /  3.2km/h 4mph /  6.4km/h 98% 0in /  0.0mm 60 W/m2
13:15 31.6 °F /  -0.2 °C 31.1 °F /  -0.5 °C 30.3in /  1026.8hPa ESE 4mph /  6.4km/h 4mph /  6.4km/h 98% 0in /  0.0mm 77 W/m2
13:20 31.6 °F /  -0.2 °C 31.1 °F /  -0.5 °C 30.3in /  1026.8hPa ESE 2.9mph /  4.7km/h 4mph /  6.4km/h 98% 0in /  0.0mm 69 W/m2
13:25 31.6 °F /  -0.2 °C 31.1 °F /  -0.5 °C 30.3in /  1026.8hPa ESE 0.9mph /  1.4km/h 2mph /  3.2km/h 98% 0in /  0.0mm 60 W/m2
13:30 31.6 °F /  -0.2 °C 30.9 °F /  -0.6 °C 30.3in /  1026.8hPa SE 0.9mph /  1.4km/h 2mph /  3.2km/h 97% 0in /  0.0mm 70 W/m2
13:35 31.6 °F /  -0.2 °C 30.9 °F /  -0.6 °C 30.3in /  1026.8hPa ESE 2.9mph /  4.7km/h 4mph /  6.4km/h 97% 0in /  0.0mm 60 W/m2
13:40 31.6 °F /  -0.2 °C 30.9 °F /  -0.6 °C 30.3in /  1026.4hPa East 2mph /  3.2km/h 3mph /  4.8km/h 97% 0in /  0.0mm 62 W/m2
13:45 31.8 °F /  -0.1 °C 31.1 °F /  -0.5 °C 30.3in /  1026.8hPa East 2.9mph /  4.7km/h 6mph /  9.7km/h 97% 0in /  0.0mm 65 W/m2
13:50 31.8 °F /  -0.1 °C 31.3 °F /  -0.4 °C 30.3in /  1026.8hPa SE 0.9mph /  1.4km/h 4mph /  6.4km/h 98% 0in /  0.0mm 67 W/m2
13:55 32.2 °F /  0.1 °C 31.6 °F /  -0.2 °C 30.3in /  1026.4hPa ESE 2mph /  3.2km/h 4mph /  6.4km/h 98% 0in /  0.0mm 63 W/m2
14:00 32.2 °F /  0.1 °C 31.6 °F /  -0.2 °C 30.3in /  1026.4hPa East 2.9mph /  4.7km/h 3mph /  4.8km/h 98% 0in /  0.0mm 60 W/m2
14:05 32.2 °F /  0.1 °C 31.6 °F /  -0.2 °C 30.3in /  1026.4hPa East 2.9mph /  4.7km/h 3mph /  4.8km/h 98% 0in /  0.0mm 54 W/m2
14:10 32.4 °F /  0.2 °C 31.8 °F /  -0.1 °C 30.3in /  1026.4hPa ESE 0.9mph /  1.4km/h 3mph /  4.8km/h 98% 0in /  0.0mm 54 W/m2
14:15 32.2 °F /  0.1 °C 31.6 °F /  -0.2 °C 30.3in /  1026.4hPa SE 2mph /  3.2km/h 6mph /  9.7km/h 98% 0in /  0.0mm 51 W/m2
14:20 32.2 °F /  0.1 °C 31.6 °F /  -0.2 °C 30.3in /  1026.4hPa ESE 0.9mph /  1.4km/h 4mph /  6.4km/h 98% 0in /  0.0mm 46 W/m2
14:25 32.4 °F /  0.2 °C 31.8 °F /  -0.1 °C 30.3in /  1026.4hPa SE 2mph /  3.2km/h 3mph /  4.8km/h 98% 0in /  0.0mm 42 W/m2
14:30 32.4 °F /  0.2 °C 31.8 °F /  -0.1 °C 30.3in /  1026.4hPa SE 2.9mph /  4.7km/h 3mph /  4.8km/h 98% 0in /  0.0mm 42 W/m2
14:35 32.4 °F /  0.2 °C 31.8 °F /  -0.1 °C 30.3in /  1026.4hPa ESE 2.9mph /  4.7km/h 4mph /  6.4km/h 98% 0in /  0.0mm 39 W/m2
14:40 32.4 °F /  0.2 °C 31.8 °F /  -0.1 °C 30.3in /  1026.1hPa Calm   4mph /  6.4km/h 98% 0in /  0.0mm 40 W/m2
14:45 32.4 °F /  0.2 °C 31.8 °F /  -0.1 °C 30.3in /  1026.1hPa ENE 2.9mph /  4.7km/h 4mph /  6.4km/h 98% 0in /  0.0mm 40 W/m2
14:50 32.4 °F /  0.2 °C 31.8 °F /  -0.1 °C 30.3in /  1026.1hPa NNE 2mph /  3.2km/h 2mph /  3.2km/h 98% 0in /  0.0mm 40 W/m2
14:55 32.5 °F /  0.3 °C 32 °F /  0 °C 30.3in /  1026.1hPa East 2mph /  3.2km/h 4mph /  6.4km/h 98% 0in /  0.0mm 37 W/m2
15:00 32.5 °F /  0.3 °C 32 °F /  0 °C 30.3in /  1026.1hPa ESE 2.9mph /  4.7km/h 3mph /  4.8km/h 98% 0in /  0.0mm 39 W/m2
15:05 32.5 °F /  0.3 °C 32 °F /  0 °C 30.3in /  1026.1hPa ESE 0.9mph /  1.4km/h 2mph /  3.2km/h 98% 0in /  0.0mm 35 W/m2
15:10 32.5 °F /  0.3 °C 32 °F /  0 °C 30.3in /  1026.1hPa ESE 0.9mph /  1.4km/h 1mph /  1.6km/h 98% 0in /  0.0mm 32 W/m2
15:15 32.5 °F /  0.3 °C 32 °F /  0 °C 30.3in /  1026.1hPa East 0.9mph /  1.4km/h 3mph /  4.8km/h 98% 0in /  0.0mm 32 W/m2
15:20 32.5 °F /  0.3 °C 32 °F /  0 °C 30.3in /  1025.7hPa ESE 0.9mph /  1.4km/h 4mph /  6.4km/h 98% 0in /  0.0mm 26 W/m2
15:25 32.7 °F /  0.4 °C 32.2 °F /  0.1 °C 30.3in /  1025.7hPa East 2.9mph /  4.7km/h 4mph /  6.4km/h 98% 0in /  0.0mm 25 W/m2
15:30 32.7 °F /  0.4 °C 32.2 °F /  0.1 °C 30.3in /  1025.7hPa ESE 0.9mph /  1.4km/h 3mph /  4.8km/h 98% 0in /  0.0mm 28 W/m2
15:35 32.7 °F /  0.4 °C 32.2 °F /  0.1 °C 30.3in /  1025.7hPa ENE 0.9mph /  1.4km/h 3mph /  4.8km/h 98% 0in /  0.0mm 25 W/m2
15:40 32.7 °F /  0.4 °C 32.2 °F /  0.1 °C 30.3in /  1025.7hPa Calm   1mph /  1.6km/h 98% 0in /  0.0mm 19 W/m2
15:45 32.9 °F /  0.5 °C 32.4 °F /  0.2 °C 30.3in /  1025.7hPa ENE 0.9mph /  1.4km/h 4mph /  6.4km/h 98% 0in /  0.0mm 18 W/m2
15:50 32.9 °F /  0.5 °C 32.4 °F /  0.2 °C 30.3in /  1025.4hPa ESE 0.9mph /  1.4km/h 3mph /  4.8km/h 98% 0in /  0.0mm 18 W/m2
15:55 32.7 °F /  0.4 °C 32.2 °F /  0.1 °C 30.3in /  1025.4hPa ENE 4mph /  6.4km/h 4mph /  6.4km/h 98% 0in /  0.0mm 14 W/m2
16:00 32.9 °F /  0.5 °C 32.4 °F /  0.2 °C 30.3in /  1025.4hPa ESE 0.9mph /  1.4km/h 7mph /  11.3km/h 98% 0in /  0.0mm 16 W/m2
16:06 32.9 °F /  0.5 °C 32.4 °F /  0.2 °C 30.3in /  1025.4hPa Calm   2mph /  3.2km/h 98% 0in /  0.0mm 12 W/m2
16:11 32.7 °F /  0.4 °C 32.2 °F /  0.1 °C 30.3in /  1025.4hPa ESE 0.9mph /  1.4km/h 7mph /  11.3km/h 98% 0in /  0.0mm 11 W/m2
16:16 32.9 °F /  0.5 °C 32.4 °F /  0.2 °C 30.3in /  1025.4hPa ESE 2mph /  3.2km/h 3mph /  4.8km/h 98% 0in /  0.0mm 9 W/m2
16:21 32.9 °F /  0.5 °C 32.4 °F /  0.2 °C 30.3in /  1025.4hPa ESE 2.9mph /  4.7km/h 6mph /  9.7km/h 98% 0in /  0.0mm 9 W/m2
16:26 32.7 °F /  0.4 °C 32.2 °F /  0.1 °C 30.3in /  1025.4hPa NNE 0.9mph /  1.4km/h 3mph /  4.8km/h 98% 0in /  0.0mm 5 W/m2
16:31 32.9 °F /  0.5 °C 32.4 °F /  0.2 °C 30.3in /  1025.1hPa East 2mph /  3.2km/h 3mph /  4.8km/h 98% 0in /  0.0mm 5 W/m2
16:36 32.9 °F /  0.5 °C 32.4 °F /  0.2 °C 30.3in /  1025.1hPa SE 2mph /  3.2km/h 3mph /  4.8km/h 98% 0in /  0.0mm 5 W/m2
16:41 32.9 °F /  0.5 °C 32.4 °F /  0.2 °C 30.3in /  1025.4hPa ESE 2.9mph /  4.7km/h 4mph /  6.4km/h 98% 0in /  0.0mm 0 W/m2
16:46 32.9 °F /  0.5 °C 32.4 °F /  0.2 °C 30.3in /  1025.1hPa East 2.9mph /  4.7km/h 6mph /  9.7km/h 98% 0in /  0.0mm 0 W/m2
16:51 32.9 °F /  0.5 °C 32.4 °F /  0.2 °C 30.3in /  1025.4hPa ESE 2mph /  3.2km/h 4mph /  6.4km/h 98% 0in /  0.0mm 0 W/m2
16:56 32.9 °F /  0.5 °C 32.4 °F /  0.2 °C 30.3in /  1025.1hPa ESE 0.9mph /  1.4km/h 3mph /  4.8km/h 98% 0in /  0.0mm 0 W/m2
17:01 33.1 °F /  0.6 °C 32.5 °F /  0.3 °C 30.3in /  1025.1hPa SE 2mph /  3.2km/h 3mph /  4.8km/h 98% 0in /  0.0mm 0 W/m2
17:06 33.1 °F /  0.6 °C 32.5 °F /  0.3 °C 30.3in /  1025.1hPa ESE 0.9mph /  1.4km/h 3mph /  4.8km/h 98% 0in /  0.0mm 0 W/m2
17:11 33.1 °F /  0.6 °C 32.5 °F /  0.3 °C 30.3in /  1025.1hPa ESE 2mph /  3.2km/h 7mph /  11.3km/h 98% 0in /  0.0mm 0 W/m2
17:16 33.3 °F /  0.7 °C 32.7 °F /  0.4 °C 30.3in /  1025.1hPa ESE 4mph /  6.4km/h 7mph /  11.3km/h 98% 0in /  0.0mm 0 W/m2
17:21 33.3 °F /  0.7 °C 32.7 °F /  0.4 °C 30.3in /  1025.1hPa ESE 4mph /  6.4km/h 4mph /  6.4km/h 98% 0in /  0.0mm 0 W/m2
Juneau County Weather
Compliments of Weather Underground - 2 mb